sensor_id;sensor_type;location;lat;lon;timestamp;pressure;altitude;pressure_sealevel;temperature;humidity
30338;BME280;17143;51.888;5.408;2023-02-19T00:00:46;101594.66;;;10.84;100.00
30338;BME280;17143;51.888;5.408;2023-02-19T00:15:48;101595.88;;;10.76;100.00
30338;BME280;17143;51.888;5.408;2023-02-19T00:30:50;101601.38;;;10.68;100.00
30338;BME280;17143;51.888;5.408;2023-02-19T00:45:52;101598.28;;;10.60;100.00
30338;BME280;17143;51.888;5.408;2023-02-19T01:00:54;101608.47;;;10.44;100.00
30338;BME280;17143;51.888;5.408;2023-02-19T01:16:03;101614.78;;;10.34;100.00
30338;BME280;17143;51.888;5.408;2023-02-19T01:31:06;101626.81;;;10.32;100.00
30338;BME280;17143;51.888;5.408;2023-02-19T01:46:09;101649.56;;;10.35;100.00
30338;BME280;17143;51.888;5.408;2023-02-19T02:01:11;101647.44;;;10.29;100.00
30338;BME280;17143;51.888;5.408;2023-02-19T02:16:22;101643.31;;;10.33;100.00
30338;BME280;17143;51.888;5.408;2023-02-19T02:31:26;101638.59;;;10.27;100.00
30338;BME280;17143;51.888;5.408;2023-02-19T02:46:33;101657.63;;;10.26;100.00
30338;BME280;17143;51.888;5.408;2023-02-19T03:01:40;101671.44;;;10.25;100.00
30338;BME280;17143;51.888;5.408;2023-02-19T03:16:45;101674.88;;;10.24;100.00
30338;BME280;17143;51.888;5.408;2023-02-19T03:31:50;101676.44;;;10.22;100.00
30338;BME280;17143;51.888;5.408;2023-02-19T03:46:58;101695.88;;;10.27;100.00
30338;BME280;17143;51.888;5.408;2023-02-19T04:02:06;101713.53;;;10.31;100.00
30338;BME280;17143;51.888;5.408;2023-02-19T04:17:16;101740.16;;;10.27;100.00
30338;BME280;17143;51.888;5.408;2023-02-19T04:32:20;101749.13;;;10.19;100.00
30338;BME280;17143;51.888;5.408;2023-02-19T04:47:22;101773.16;;;10.15;100.00
30338;BME280;17143;51.888;5.408;2023-02-19T05:02:24;101809.38;;;10.12;100.00
30338;BME280;17143;51.888;5.408;2023-02-19T05:17:26;101818.75;;;10.10;100.00
30338;BME280;17143;51.888;5.408;2023-02-19T05:32:28;101833.38;;;10.08;100.00
30338;BME280;17143;51.888;5.408;2023-02-19T05:47:30;101838.78;;;10.11;100.00
30338;BME280;17143;51.888;5.408;2023-02-19T06:02:32;101843.09;;;10.11;100.00
30338;BME280;17143;51.888;5.408;2023-02-19T06:17:34;101856.00;;;10.09;100.00
30338;BME280;17143;51.888;5.408;2023-02-19T06:32:36;101900.03;;;10.06;100.00
30338;BME280;17143;51.888;5.408;2023-02-19T06:47:38;101907.66;;;10.03;100.00
30338;BME280;17143;51.888;5.408;2023-02-19T07:02:40;101923.03;;;10.00;100.00
30338;BME280;17143;51.888;5.408;2023-02-19T07:17:42;101946.78;;;9.93;100.00
30338;BME280;17143;51.888;5.408;2023-02-19T07:32:44;101970.78;;;9.89;100.00
30338;BME280;17143;51.888;5.408;2023-02-19T07:47:46;101999.50;;;9.91;100.00
30338;BME280;17143;51.888;5.408;2023-02-19T08:02:48;102020.13;;;9.99;100.00
30338;BME280;17143;51.888;5.408;2023-02-19T08:17:50;102028.78;;;10.21;100.00
30338;BME280;17143;51.888;5.408;2023-02-19T08:32:53;102050.06;;;10.16;100.00
30338;BME280;17143;51.888;5.408;2023-02-19T08:47:55;102061.16;;;10.13;100.00
30338;BME280;17143;51.888;5.408;2023-02-19T09:02:57;102090.44;;;10.11;100.00
30338;BME280;17143;51.888;5.408;2023-02-19T09:17:59;102087.97;;;10.12;100.00
30338;BME280;17143;51.888;5.408;2023-02-19T09:33:03;102108.28;;;10.39;100.00
30338;BME280;17143;51.888;5.408;2023-02-19T09:48:05;102162.75;;;10.36;100.00
30338;BME280;17143;51.888;5.408;2023-02-19T10:03:11;102186.22;;;10.60;100.00
30338;BME280;17143;51.888;5.408;2023-02-19T10:18:17;102202.28;;;11.58;100.00
30338;BME280;17143;51.888;5.408;2023-02-19T10:33:21;102222.31;;;11.00;100.00
30338;BME280;17143;51.888;5.408;2023-02-19T10:48:26;102247.47;;;10.99;100.00
30338;BME280;17143;51.888;5.408;2023-02-19T11:03:29;102250.19;;;11.24;100.00
30338;BME280;17143;51.888;5.408;2023-02-19T11:18:31;102224.34;;;11.04;100.00
30338;BME280;17143;51.888;5.408;2023-02-19T11:33:34;102233.66;;;11.00;100.00
30338;BME280;17143;51.888;5.408;2023-02-19T11:48:52;102253.59;;;11.35;100.00
30338;BME280;17143;51.888;5.408;2023-02-19T12:20:00;102242.94;;;11.43;100.00
30338;BME280;17143;51.888;5.408;2023-02-19T12:35:26;102248.56;;;11.49;100.00
30338;BME280;17143;51.888;5.408;2023-02-19T12:50:34;102246.41;;;11.55;100.00
30338;BME280;17143;51.888;5.408;2023-02-19T13:05:45;102284.56;;;11.30;100.00
30338;BME280;17143;51.888;5.408;2023-02-19T13:20:51;102289.69;;;11.17;100.00
30338;BME280;17143;51.888;5.408;2023-02-19T13:36:09;102331.16;;;11.02;100.00
30338;BME280;17143;51.888;5.408;2023-02-19T13:51:38;102330.00;;;10.99;100.00
30338;BME280;17143;51.888;5.408;2023-02-19T14:22:48;102376.72;;;10.09;100.00
30338;BME280;17143;51.888;5.408;2023-02-19T14:37:53;102371.84;;;9.60;100.00
30338;BME280;17143;51.888;5.408;2023-02-19T14:52:58;102352.75;;;9.50;100.00
30338;BME280;17143;51.888;5.408;2023-02-19T15:08:06;102352.25;;;9.44;100.00
30338;BME280;17143;51.888;5.408;2023-02-19T15:23:17;102342.34;;;9.50;100.00
30338;BME280;17143;51.888;5.408;2023-02-19T15:38:20;102384.44;;;9.56;100.00
30338;BME280;17143;51.888;5.408;2023-02-19T15:53:24;102413.34;;;9.49;100.00
30338;BME280;17143;51.888;5.408;2023-02-19T16:08:30;102405.81;;;9.52;100.00
30338;BME280;17143;51.888;5.408;2023-02-19T16:23:32;102443.56;;;9.37;100.00
30338;BME280;17143;51.888;5.408;2023-02-19T16:38:34;102453.69;;;9.34;100.00
30338;BME280;17143;51.888;5.408;2023-02-19T16:53:37;102453.69;;;9.24;100.00
30338;BME280;17143;51.888;5.408;2023-02-19T17:08:40;102472.13;;;9.06;100.00
30338;BME280;17143;51.888;5.408;2023-02-19T17:23:43;102464.31;;;8.86;100.00
30338;BME280;17143;51.888;5.408;2023-02-19T17:38:45;102472.59;;;8.72;100.00
30338;BME280;17143;51.888;5.408;2023-02-19T17:53:47;102498.56;;;8.72;100.00
30338;BME280;17143;51.888;5.408;2023-02-19T18:08:51;102520.66;;;8.67;100.00
30338;BME280;17143;51.888;5.408;2023-02-19T18:23:53;102498.25;;;8.49;100.00
30338;BME280;17143;51.888;5.408;2023-02-19T18:38:55;102483.63;;;8.31;100.00
30338;BME280;17143;51.888;5.408;2023-02-19T18:53:57;102491.28;;;8.11;100.00
30338;BME280;17143;51.888;5.408;2023-02-19T19:08:59;102504.63;;;7.86;100.00
30338;BME280;17143;51.888;5.408;2023-02-19T19:24:01;102498.38;;;7.66;100.00
30338;BME280;17143;51.888;5.408;2023-02-19T19:39:03;102519.63;;;7.43;100.00
30338;BME280;17143;51.888;5.408;2023-02-19T19:54:05;102507.81;;;7.28;100.00
30338;BME280;17143;51.888;5.408;2023-02-19T20:09:07;102515.19;;;7.15;100.00
30338;BME280;17143;51.888;5.408;2023-02-19T20:24:12;102500.97;;;7.01;100.00
30338;BME280;17143;51.888;5.408;2023-02-19T20:39:15;102487.00;;;6.91;100.00
30338;BME280;17143;51.888;5.408;2023-02-19T20:54:18;102487.03;;;6.82;100.00
30338;BME280;17143;51.888;5.408;2023-02-19T21:09:21;102512.66;;;6.70;100.00
30338;BME280;17143;51.888;5.408;2023-02-19T21:24:23;102475.25;;;6.58;100.00
30338;BME280;17143;51.888;5.408;2023-02-19T21:39:26;102468.88;;;6.46;100.00
30338;BME280;17143;51.888;5.408;2023-02-19T21:54:28;102483.25;;;6.34;100.00
30338;BME280;17143;51.888;5.408;2023-02-19T22:09:30;102482.34;;;6.25;100.00
30338;BME280;17143;51.888;5.408;2023-02-19T22:24:32;102468.22;;;6.13;100.00
30338;BME280;17143;51.888;5.408;2023-02-19T22:39:34;102466.56;;;6.05;100.00
30338;BME280;17143;51.888;5.408;2023-02-19T22:54:37;102446.78;;;5.97;100.00
30338;BME280;17143;51.888;5.408;2023-02-19T23:09:39;102428.69;;;5.97;100.00
30338;BME280;17143;51.888;5.408;2023-02-19T23:24:41;102420.91;;;6.05;100.00
30338;BME280;17143;51.888;5.408;2023-02-19T23:39:43;102423.31;;;6.21;100.00
30338;BME280;17143;51.888;5.408;2023-02-19T23:54:45;102399.19;;;6.39;100.00
